Ridgecrest, CA (93555)

03:29 AM PDT am 02. September 2015 (GMT -0700)
APRSWXNET | | Change Station
CLOSE
Current Station
Persönliche Wetterstationen
Location: Ridgecrest, CA
Höhe: 2391 ft
Wetterstationen in der Umgebung

Höhe 2391 ft 35.60 °N, 117.70 °W | Updated 26 minutes ago

Heiter
Heiter
76 °F
gefühlte 77 °F
N
7
Wind Wechselnd Wind aus West-Südwest
Gusts 16.0 mph

Heute
Max. -- | schwach -- °F
--% Regenrisiko
Gestern
Max. -- | schwach -- °F
Precip. -- inch
6:23 AM 7:16 PM
Drittes Viertel, 81% visible
Druck 29.83 inch
Sichtweite 10.0 Meilen
Wolken Heiter
Hitzeindex 77 °F
Taupunkt 40 °F
Feuchtigkeit 27%
Regen inch
Schneehöhe Nicht verfügbar..
UV 0 von 12
Pollen 8.60 von 12
Luftqualität Nicht verfügbar..
Flu Activity Nicht verfügbar..
METAR KNID 020956Z AUTO 18009KT 10SM CLR 23/03 A2990 RMK AO2 SLP102 T02330033 $
Druck 29.83 inch
Sichtweite 10.0 Meilen
Wolken Heiter
Hitzeindex 77 °F
Taupunkt 40 °F
Feuchtigkeit 27%
Regen inch
Schneehöhe Nicht verfügbar..
UV 0 von 12
Pollen 8.60 von 12
Luftqualität Nicht verfügbar..
Flu Activity Nicht verfügbar..
METAR KNID 020956Z AUTO 18009KT 10SM CLR 23/03 A2990 RMK AO2 SLP102 T02330033 $

10-Day Weather Forecast

×

Almanac

Astronomie

Sep. 02, 2015 Aufgang Untergang
Genaue Zeit
Bürgerliche Dämmerung
Nautische Dämmerung
Astronomische Dämmerung
Mond
Länge des sichtbaren Lichts
Tageslänge
Tomorrow will be .
, % of the Moon is Illuminated

Heutige Rekorde

State Highs State Lows

Community

WunderPhotos

Upload Photos

1,851,734 Fotos hochgeladen!

WunderBlogs® & News

Nearby

Luftqualität

  Luftqualität LQ Index Schadstoff
Not available.

Schneehöhe

Station Depth Höhe

Erdbebenaktivität

Stadt Distance Mag. Time & Date
Minimum magnitude displayed is 2.5.

küstennahe Wassertemperaturen

Ort Temperatur

Stations

Wetterstationen in der Umgebung

Stationsstandort Temp. Windchill Taupunkt Feuchtigkeit Wind Precip. Höhe Aktualisiert Art